sensor_id;sensor_type;location;lat;lon;timestamp;temperature;humidity
19847;DHT22;10084;50.518;8.588;2022-08-01T00:02:13;22.30;75.60
19847;DHT22;10084;50.518;8.588;2022-08-01T00:04:38;22.30;75.80
19847;DHT22;10084;50.518;8.588;2022-08-01T00:07:04;22.30;75.80
19847;DHT22;10084;50.518;8.588;2022-08-01T00:09:30;22.30;75.90
19847;DHT22;10084;50.518;8.588;2022-08-01T00:11:56;22.30;76.00
19847;DHT22;10084;50.518;8.588;2022-08-01T00:14:22;22.30;76.00
19847;DHT22;10084;50.518;8.588;2022-08-01T00:16:47;22.30;75.90
19847;DHT22;10084;50.518;8.588;2022-08-01T00:19:13;22.30;76.00
19847;DHT22;10084;50.518;8.588;2022-08-01T00:21:39;22.30;76.00
19847;DHT22;10084;50.518;8.588;2022-08-01T00:24:05;22.40;76.10
19847;DHT22;10084;50.518;8.588;2022-08-01T00:26:30;22.30;76.10
19847;DHT22;10084;50.518;8.588;2022-08-01T00:28:56;22.40;76.20
19847;DHT22;10084;50.518;8.588;2022-08-01T00:31:22;22.40;76.20
19847;DHT22;10084;50.518;8.588;2022-08-01T00:33:47;22.40;76.20
19847;DHT22;10084;50.518;8.588;2022-08-01T00:36:13;22.40;76.20
19847;DHT22;10084;50.518;8.588;2022-08-01T00:38:39;22.40;76.30
19847;DHT22;10084;50.518;8.588;2022-08-01T00:41:05;22.40;76.30
19847;DHT22;10084;50.518;8.588;2022-08-01T00:43:30;22.40;76.40
19847;DHT22;10084;50.518;8.588;2022-08-01T00:45:56;22.40;76.30
19847;DHT22;10084;50.518;8.588;2022-08-01T00:48:22;22.40;76.30
19847;DHT22;10084;50.518;8.588;2022-08-01T00:50:47;22.40;76.40
19847;DHT22;10084;50.518;8.588;2022-08-01T00:53:14;22.40;76.40
19847;DHT22;10084;50.518;8.588;2022-08-01T00:55:40;22.40;76.50
19847;DHT22;10084;50.518;8.588;2022-08-01T00:58:05;22.40;76.50
19847;DHT22;10084;50.518;8.588;2022-08-01T01:00:32;22.40;76.50
19847;DHT22;10084;50.518;8.588;2022-08-01T01:02:58;22.40;76.60
19847;DHT22;10084;50.518;8.588;2022-08-01T01:05:24;22.50;76.60
19847;DHT22;10084;50.518;8.588;2022-08-01T01:08:02;22.50;76.60
19847;DHT22;10084;50.518;8.588;2022-08-01T01:10:45;22.50;76.60
19847;DHT22;10084;50.518;8.588;2022-08-01T01:13:20;22.50;76.50
19847;DHT22;10084;50.518;8.588;2022-08-01T01:16:00;22.50;76.60
19847;DHT22;10084;50.518;8.588;2022-08-01T01:18:34;22.50;76.70
19847;DHT22;10084;50.518;8.588;2022-08-01T01:24:45;22.40;76.80
19847;DHT22;10084;50.518;8.588;2022-08-01T01:29:31;22.40;76.80
19847;DHT22;10084;50.518;8.588;2022-08-01T01:34:52;22.30;77.00
19847;DHT22;10084;50.518;8.588;2022-08-01T01:37:23;22.20;77.80
19847;DHT22;10084;50.518;8.588;2022-08-01T01:39:51;22.20;77.20
19847;DHT22;10084;50.518;8.588;2022-08-01T01:42:18;22.20;77.20
19847;DHT22;10084;50.518;8.588;2022-08-01T01:44:48;22.10;77.30
19847;DHT22;10084;50.518;8.588;2022-08-01T01:47:16;22.10;77.30
19847;DHT22;10084;50.518;8.588;2022-08-01T01:49:44;22.10;77.40
19847;DHT22;10084;50.518;8.588;2022-08-01T01:52:13;22.00;77.50
19847;DHT22;10084;50.518;8.588;2022-08-01T01:54:49;22.00;77.50
19847;DHT22;10084;50.518;8.588;2022-08-01T01:57:16;22.00;77.60
19847;DHT22;10084;50.518;8.588;2022-08-01T01:59:44;22.00;77.60
19847;DHT22;10084;50.518;8.588;2022-08-01T02:02:11;22.00;77.70
19847;DHT22;10084;50.518;8.588;2022-08-01T02:04:44;22.00;77.70
19847;DHT22;10084;50.518;8.588;2022-08-01T02:07:13;22.00;77.80
19847;DHT22;10084;50.518;8.588;2022-08-01T02:09:41;22.00;77.80
19847;DHT22;10084;50.518;8.588;2022-08-01T02:12:10;22.00;77.90
19847;DHT22;10084;50.518;8.588;2022-08-01T02:14:39;22.00;77.90
19847;DHT22;10084;50.518;8.588;2022-08-01T02:17:05;22.00;78.00
19847;DHT22;10084;50.518;8.588;2022-08-01T02:19:32;22.00;78.00
19847;DHT22;10084;50.518;8.588;2022-08-01T02:22:07;22.00;78.10
19847;DHT22;10084;50.518;8.588;2022-08-01T02:24:38;22.00;78.10
19847;DHT22;10084;50.518;8.588;2022-08-01T02:27:09;22.00;78.80
19847;DHT22;10084;50.518;8.588;2022-08-01T02:29:42;22.00;78.20
19847;DHT22;10084;50.518;8.588;2022-08-01T02:32:17;22.00;78.20
19847;DHT22;10084;50.518;8.588;2022-08-01T02:34:47;22.00;78.30
19847;DHT22;10084;50.518;8.588;2022-08-01T02:37:15;22.00;78.40
19847;DHT22;10084;50.518;8.588;2022-08-01T02:39:42;22.00;78.40
19847;DHT22;10084;50.518;8.588;2022-08-01T02:42:11;22.00;78.40
19847;DHT22;10084;50.518;8.588;2022-08-01T02:44:42;22.00;78.40
19847;DHT22;10084;50.518;8.588;2022-08-01T02:47:08;22.00;78.40
19847;DHT22;10084;50.518;8.588;2022-08-01T02:49:41;22.00;78.50
19847;DHT22;10084;50.518;8.588;2022-08-01T02:52:12;22.00;78.60
19847;DHT22;10084;50.518;8.588;2022-08-01T02:54:39;21.90;78.60
19847;DHT22;10084;50.518;8.588;2022-08-01T02:57:06;21.90;78.70
19847;DHT22;10084;50.518;8.588;2022-08-01T02:59:34;21.90;78.80
19847;DHT22;10084;50.518;8.588;2022-08-01T03:02:03;21.90;79.00
19847;DHT22;10084;50.518;8.588;2022-08-01T03:04:32;21.90;79.10
19847;DHT22;10084;50.518;8.588;2022-08-01T03:07:00;21.90;79.20
19847;DHT22;10084;50.518;8.588;2022-08-01T03:09:28;21.90;79.20
19847;DHT22;10084;50.518;8.588;2022-08-01T03:11:58;21.90;79.30
19847;DHT22;10084;50.518;8.588;2022-08-01T03:14:25;21.80;79.20
19847;DHT22;10084;50.518;8.588;2022-08-01T03:16:53;21.80;79.30
19847;DHT22;10084;50.518;8.588;2022-08-01T03:19:20;21.80;79.40
19847;DHT22;10084;50.518;8.588;2022-08-01T03:21:48;21.70;79.30
19847;DHT22;10084;50.518;8.588;2022-08-01T03:24:15;21.70;79.40
19847;DHT22;10084;50.518;8.588;2022-08-01T03:26:43;21.60;79.40
19847;DHT22;10084;50.518;8.588;2022-08-01T03:29:14;21.60;79.50
19847;DHT22;10084;50.518;8.588;2022-08-01T03:31:43;21.50;79.50
19847;DHT22;10084;50.518;8.588;2022-08-01T03:34:10;21.50;79.60
19847;DHT22;10084;50.518;8.588;2022-08-01T03:36:47;21.50;79.70
19847;DHT22;10084;50.518;8.588;2022-08-01T03:39:14;21.40;79.70
19847;DHT22;10084;50.518;8.588;2022-08-01T03:41:45;21.40;79.70
19847;DHT22;10084;50.518;8.588;2022-08-01T03:44:17;21.30;78.10
19847;DHT22;10084;50.518;8.588;2022-08-01T03:46:47;21.30;70.30
19847;DHT22;10084;50.518;8.588;2022-08-01T03:49:34;21.30;69.80
19847;DHT22;10084;50.518;8.588;2022-08-01T03:52:02;21.30;69.70
19847;DHT22;10084;50.518;8.588;2022-08-01T03:54:32;21.30;69.60
19847;DHT22;10084;50.518;8.588;2022-08-01T03:57:00;21.30;69.60
19847;DHT22;10084;50.518;8.588;2022-08-01T03:59:26;21.30;69.60
19847;DHT22;10084;50.518;8.588;2022-08-01T04:01:52;21.30;69.60
19847;DHT22;10084;50.518;8.588;2022-08-01T04:04:19;21.30;69.60
19847;DHT22;10084;50.518;8.588;2022-08-01T04:06:45;21.30;69.60
19847;DHT22;10084;50.518;8.588;2022-08-01T04:09:11;21.30;69.70
19847;DHT22;10084;50.518;8.588;2022-08-01T04:11:40;21.30;69.70
19847;DHT22;10084;50.518;8.588;2022-08-01T04:14:06;21.30;69.70
19847;DHT22;10084;50.518;8.588;2022-08-01T04:16:32;21.30;69.80
19847;DHT22;10084;50.518;8.588;2022-08-01T04:18:57;21.30;69.80
19847;DHT22;10084;50.518;8.588;2022-08-01T04:21:25;21.30;69.80
19847;DHT22;10084;50.518;8.588;2022-08-01T04:23:59;21.30;69.90
19847;DHT22;10084;50.518;8.588;2022-08-01T04:26:27;21.40;70.00
19847;DHT22;10084;50.518;8.588;2022-08-01T04:28:55;21.40;70.10
19847;DHT22;10084;50.518;8.588;2022-08-01T04:31:22;21.40;70.10
19847;DHT22;10084;50.518;8.588;2022-08-01T04:33:53;21.30;70.20
19847;DHT22;10084;50.518;8.588;2022-08-01T04:36:23;21.30;70.20
19847;DHT22;10084;50.518;8.588;2022-08-01T04:38:52;21.40;70.30
19847;DHT22;10084;50.518;8.588;2022-08-01T04:41:18;21.40;70.40
19847;DHT22;10084;50.518;8.588;2022-08-01T04:43:45;21.40;70.50
19847;DHT22;10084;50.518;8.588;2022-08-01T04:46:13;21.50;70.50
19847;DHT22;10084;50.518;8.588;2022-08-01T04:48:40;21.50;70.50
19847;DHT22;10084;50.518;8.588;2022-08-01T04:51:14;21.50;70.50
19847;DHT22;10084;50.518;8.588;2022-08-01T04:53:45;21.60;70.60
19847;DHT22;10084;50.518;8.588;2022-08-01T04:56:11;21.60;70.60
19847;DHT22;10084;50.518;8.588;2022-08-01T04:58:41;21.70;70.70
19847;DHT22;10084;50.518;8.588;2022-08-01T05:01:08;21.70;70.70
19847;DHT22;10084;50.518;8.588;2022-08-01T05:03:34;21.80;70.80
19847;DHT22;10084;50.518;8.588;2022-08-01T05:06:00;21.90;70.90
19847;DHT22;10084;50.518;8.588;2022-08-01T05:08:26;22.00;71.00
19847;DHT22;10084;50.518;8.588;2022-08-01T05:10:52;22.10;71.00
19847;DHT22;10084;50.518;8.588;2022-08-01T05:13:19;22.20;71.10
19847;DHT22;10084;50.518;8.588;2022-08-01T05:15:45;22.30;71.10
19847;DHT22;10084;50.518;8.588;2022-08-01T05:18:10;22.40;71.10
19847;DHT22;10084;50.518;8.588;2022-08-01T05:20:37;22.40;71.10
19847;DHT22;10084;50.518;8.588;2022-08-01T05:23:05;22.50;71.10
19847;DHT22;10084;50.518;8.588;2022-08-01T05:25:31;22.50;71.20
19847;DHT22;10084;50.518;8.588;2022-08-01T05:27:57;22.50;71.20
19847;DHT22;10084;50.518;8.588;2022-08-01T05:30:23;22.50;71.20
19847;DHT22;10084;50.518;8.588;2022-08-01T05:32:49;22.50;71.30
19847;DHT22;10084;50.518;8.588;2022-08-01T05:35:14;22.50;71.40
19847;DHT22;10084;50.518;8.588;2022-08-01T05:37:40;22.40;71.50
19847;DHT22;10084;50.518;8.588;2022-08-01T05:40:06;22.40;71.70
19847;DHT22;10084;50.518;8.588;2022-08-01T05:42:32;22.40;71.90
19847;DHT22;10084;50.518;8.588;2022-08-01T05:44:58;22.40;72.00
19847;DHT22;10084;50.518;8.588;2022-08-01T05:47:23;22.40;72.20
19847;DHT22;10084;50.518;8.588;2022-08-01T05:49:49;22.30;72.30
19847;DHT22;10084;50.518;8.588;2022-08-01T05:52:15;22.30;72.40
19847;DHT22;10084;50.518;8.588;2022-08-01T05:54:40;22.30;72.60
19847;DHT22;10084;50.518;8.588;2022-08-01T05:57:06;22.30;72.70
19847;DHT22;10084;50.518;8.588;2022-08-01T05:59:32;22.30;72.90
19847;DHT22;10084;50.518;8.588;2022-08-01T06:01:58;22.30;73.00
19847;DHT22;10084;50.518;8.588;2022-08-01T06:04:23;22.30;73.10
19847;DHT22;10084;50.518;8.588;2022-08-01T06:06:49;22.30;73.30
19847;DHT22;10084;50.518;8.588;2022-08-01T06:09:15;22.30;73.30
19847;DHT22;10084;50.518;8.588;2022-08-01T06:11:40;22.30;73.40
19847;DHT22;10084;50.518;8.588;2022-08-01T06:14:06;22.30;73.60
19847;DHT22;10084;50.518;8.588;2022-08-01T06:16:32;22.30;73.70
19847;DHT22;10084;50.518;8.588;2022-08-01T06:18:58;22.30;73.90
19847;DHT22;10084;50.518;8.588;2022-08-01T06:21:24;22.30;74.00
19847;DHT22;10084;50.518;8.588;2022-08-01T06:23:49;22.40;74.30
19847;DHT22;10084;50.518;8.588;2022-08-01T06:26:18;22.40;74.40
19847;DHT22;10084;50.518;8.588;2022-08-01T06:28:44;22.40;74.40
19847;DHT22;10084;50.518;8.588;2022-08-01T06:31:10;22.40;74.50
19847;DHT22;10084;50.518;8.588;2022-08-01T06:33:38;22.40;74.70
19847;DHT22;10084;50.518;8.588;2022-08-01T06:36:03;22.40;75.60
19847;DHT22;10084;50.518;8.588;2022-08-01T06:38:29;22.40;75.00
19847;DHT22;10084;50.518;8.588;2022-08-01T06:40:55;22.50;75.10
19847;DHT22;10084;50.518;8.588;2022-08-01T06:43:20;22.50;75.30
19847;DHT22;10084;50.518;8.588;2022-08-01T06:45:47;22.60;75.30
19847;DHT22;10084;50.518;8.588;2022-08-01T06:48:12;22.70;75.40
19847;DHT22;10084;50.518;8.588;2022-08-01T06:50:38;22.70;75.40
19847;DHT22;10084;50.518;8.588;2022-08-01T06:53:04;22.80;75.40
19847;DHT22;10084;50.518;8.588;2022-08-01T06:55:30;22.90;75.30
19847;DHT22;10084;50.518;8.588;2022-08-01T06:57:56;23.00;75.20
19847;DHT22;10084;50.518;8.588;2022-08-01T07:00:24;23.00;75.10
19847;DHT22;10084;50.518;8.588;2022-08-01T07:02:51;23.10;75.20
19847;DHT22;10084;50.518;8.588;2022-08-01T07:05:18;23.10;75.10
19847;DHT22;10084;50.518;8.588;2022-08-01T07:07:43;23.20;75.10
19847;DHT22;10084;50.518;8.588;2022-08-01T07:10:09;23.30;75.20
19847;DHT22;10084;50.518;8.588;2022-08-01T07:12:36;23.40;75.10
19847;DHT22;10084;50.518;8.588;2022-08-01T07:15:08;23.50;75.00
19847;DHT22;10084;50.518;8.588;2022-08-01T07:17:38;23.50;74.80
19847;DHT22;10084;50.518;8.588;2022-08-01T07:20:06;23.60;74.70
19847;DHT22;10084;50.518;8.588;2022-08-01T07:22:32;23.70;75.00
19847;DHT22;10084;50.518;8.588;2022-08-01T07:24:57;23.80;75.00
19847;DHT22;10084;50.518;8.588;2022-08-01T07:27:23;23.80;74.90
19847;DHT22;10084;50.518;8.588;2022-08-01T07:29:49;23.90;74.80
19847;DHT22;10084;50.518;8.588;2022-08-01T07:32:14;24.00;74.70
19847;DHT22;10084;50.518;8.588;2022-08-01T07:34:40;24.10;74.40
19847;DHT22;10084;50.518;8.588;2022-08-01T07:37:06;24.20;74.30
19847;DHT22;10084;50.518;8.588;2022-08-01T07:39:31;24.20;74.20
19847;DHT22;10084;50.518;8.588;2022-08-01T07:41:57;24.30;74.10
19847;DHT22;10084;50.518;8.588;2022-08-01T07:44:23;24.40;74.10
19847;DHT22;10084;50.518;8.588;2022-08-01T07:46:48;24.50;74.20
19847;DHT22;10084;50.518;8.588;2022-08-01T07:49:14;24.70;74.30
19847;DHT22;10084;50.518;8.588;2022-08-01T07:51:40;24.90;74.40
19847;DHT22;10084;50.518;8.588;2022-08-01T07:54:06;25.20;74.40
19847;DHT22;10084;50.518;8.588;2022-08-01T07:56:33;25.50;74.60
19847;DHT22;10084;50.518;8.588;2022-08-01T07:58:58;25.80;74.60
19847;DHT22;10084;50.518;8.588;2022-08-01T08:01:24;26.10;74.90
19847;DHT22;10084;50.518;8.588;2022-08-01T08:03:50;26.30;74.00
19847;DHT22;10084;50.518;8.588;2022-08-01T08:06:15;26.50;73.70
19847;DHT22;10084;50.518;8.588;2022-08-01T08:08:41;26.50;73.30
19847;DHT22;10084;50.518;8.588;2022-08-01T08:11:07;26.60;73.00
19847;DHT22;10084;50.518;8.588;2022-08-01T08:13:33;26.60;72.70
19847;DHT22;10084;50.518;8.588;2022-08-01T08:15:58;26.50;72.60
19847;DHT22;10084;50.518;8.588;2022-08-01T08:18:25;26.50;72.70
19847;DHT22;10084;50.518;8.588;2022-08-01T08:20:51;26.70;74.80
19847;DHT22;10084;50.518;8.588;2022-08-01T08:23:17;27.20;80.50
19847;DHT22;10084;50.518;8.588;2022-08-01T08:26:01;27.70;84.70
19847;DHT22;10084;50.518;8.588;2022-08-01T08:28:27;27.90;82.90
19847;DHT22;10084;50.518;8.588;2022-08-01T08:30:53;28.00;81.90
19847;DHT22;10084;50.518;8.588;2022-08-01T08:35:46;28.30;90.00
19847;DHT22;10084;50.518;8.588;2022-08-01T10:11:10;29.60;91.20
19847;DHT22;10084;50.518;8.588;2022-08-01T10:13:36;29.90;86.70
19847;DHT22;10084;50.518;8.588;2022-08-01T10:16:02;29.90;85.30
19847;DHT22;10084;50.518;8.588;2022-08-01T10:18:32;29.90;84.80
19847;DHT22;10084;50.518;8.588;2022-08-01T10:21:00;30.00;84.20
19847;DHT22;10084;50.518;8.588;2022-08-01T10:23:27;30.00;84.10
19847;DHT22;10084;50.518;8.588;2022-08-01T10:25:55;30.00;84.10
19847;DHT22;10084;50.518;8.588;2022-08-01T10:28:21;29.90;83.80
19847;DHT22;10084;50.518;8.588;2022-08-01T10:30:48;29.90;83.80
19847;DHT22;10084;50.518;8.588;2022-08-01T10:33:15;29.90;83.70
19847;DHT22;10084;50.518;8.588;2022-08-01T10:35:41;29.90;83.60
19847;DHT22;10084;50.518;8.588;2022-08-01T10:38:07;29.90;83.50
19847;DHT22;10084;50.518;8.588;2022-08-01T10:40:33;29.90;83.40
19847;DHT22;10084;50.518;8.588;2022-08-01T10:42:59;29.90;83.40
19847;DHT22;10084;50.518;8.588;2022-08-01T10:45:26;30.00;83.40
19847;DHT22;10084;50.518;8.588;2022-08-01T10:50:29;29.90;83.40
19847;DHT22;10084;50.518;8.588;2022-08-01T10:53:15;30.00;83.60
19847;DHT22;10084;50.518;8.588;2022-08-01T10:58:11;30.00;84.00
19847;DHT22;10084;50.518;8.588;2022-08-01T11:00:37;30.10;84.50
19847;DHT22;10084;50.518;8.588;2022-08-01T12:03:31;30.30;82.90
19847;DHT22;10084;50.518;8.588;2022-08-01T12:05:58;30.40;80.50
19847;DHT22;10084;50.518;8.588;2022-08-01T12:08:28;30.20;78.70
19847;DHT22;10084;50.518;8.588;2022-08-01T12:10:54;30.10;80.20
19847;DHT22;10084;50.518;8.588;2022-08-01T12:20:45;30.90;82.10
19847;DHT22;10084;50.518;8.588;2022-08-01T12:23:14;30.90;73.90
19847;DHT22;10084;50.518;8.588;2022-08-01T12:25:40;30.90;72.50
19847;DHT22;10084;50.518;8.588;2022-08-01T12:28:10;30.90;72.40
19847;DHT22;10084;50.518;8.588;2022-08-01T12:30:38;30.80;72.40
19847;DHT22;10084;50.518;8.588;2022-08-01T12:33:09;30.90;72.80
19847;DHT22;10084;50.518;8.588;2022-08-01T12:35:37;30.90;72.80
19847;DHT22;10084;50.518;8.588;2022-08-01T12:38:21;30.90;72.70
19847;DHT22;10084;50.518;8.588;2022-08-01T12:40:48;30.90;72.60
19847;DHT22;10084;50.518;8.588;2022-08-01T12:43:18;30.80;72.60
19847;DHT22;10084;50.518;8.588;2022-08-01T12:45:45;30.70;72.80
19847;DHT22;10084;50.518;8.588;2022-08-01T12:48:13;30.50;72.80
19847;DHT22;10084;50.518;8.588;2022-08-01T12:50:44;30.40;73.10
19847;DHT22;10084;50.518;8.588;2022-08-01T12:53:10;30.30;73.30
19847;DHT22;10084;50.518;8.588;2022-08-01T12:55:54;30.20;73.60
19847;DHT22;10084;50.518;8.588;2022-08-01T12:58:20;30.10;74.10
19847;DHT22;10084;50.518;8.588;2022-08-01T13:00:48;30.00;75.00
19847;DHT22;10084;50.518;8.588;2022-08-01T13:05:45;29.90;77.60
19847;DHT22;10084;50.518;8.588;2022-08-01T13:08:12;29.90;76.70
19847;DHT22;10084;50.518;8.588;2022-08-01T13:10:41;30.00;76.20
19847;DHT22;10084;50.518;8.588;2022-08-01T13:13:10;30.10;76.70
19847;DHT22;10084;50.518;8.588;2022-08-01T13:20:50;30.00;76.10
19847;DHT22;10084;50.518;8.588;2022-08-01T13:23:34;30.30;78.80
19847;DHT22;10084;50.518;8.588;2022-08-01T13:28:27;30.50;78.50
19847;DHT22;10084;50.518;8.588;2022-08-01T13:31:07;30.80;76.50
19847;DHT22;10084;50.518;8.588;2022-08-01T13:33:45;30.90;76.70
19847;DHT22;10084;50.518;8.588;2022-08-01T13:38:42;30.90;75.70
19847;DHT22;10084;50.518;8.588;2022-08-01T13:41:27;30.90;75.60
19847;DHT22;10084;50.518;8.588;2022-08-01T13:43:53;30.90;75.90
19847;DHT22;10084;50.518;8.588;2022-08-01T13:53:44;30.90;74.90
19847;DHT22;10084;50.518;8.588;2022-08-01T13:56:09;31.00;75.50
19847;DHT22;10084;50.518;8.588;2022-08-01T14:13:28;31.00;77.00
19847;DHT22;10084;50.518;8.588;2022-08-01T14:15:55;31.10;75.60
19847;DHT22;10084;50.518;8.588;2022-08-01T14:18:21;31.10;75.80
19847;DHT22;10084;50.518;8.588;2022-08-01T14:20:49;31.10;76.40
19847;DHT22;10084;50.518;8.588;2022-08-01T14:40:34;31.00;75.80
19847;DHT22;10084;50.518;8.588;2022-08-01T14:43:00;31.00;76.00
19847;DHT22;10084;50.518;8.588;2022-08-01T14:45:27;31.00;75.30
19847;DHT22;10084;50.518;8.588;2022-08-01T14:47:53;30.90;75.20
19847;DHT22;10084;50.518;8.588;2022-08-01T14:50:19;30.80;75.30
19847;DHT22;10084;50.518;8.588;2022-08-01T14:52:45;30.70;75.60
19847;DHT22;10084;50.518;8.588;2022-08-01T14:55:12;30.60;75.70
19847;DHT22;10084;50.518;8.588;2022-08-01T14:57:38;30.60;75.80
19847;DHT22;10084;50.518;8.588;2022-08-01T15:15:01;30.40;74.30
19847;DHT22;10084;50.518;8.588;2022-08-01T15:37:11;29.80;75.30
19847;DHT22;10084;50.518;8.588;2022-08-01T15:42:11;29.60;74.20
19847;DHT22;10084;50.518;8.588;2022-08-01T15:44:38;29.70;73.70
19847;DHT22;10084;50.518;8.588;2022-08-01T15:47:04;29.70;73.60
19847;DHT22;10084;50.518;8.588;2022-08-01T15:49:31;29.60;73.70
19847;DHT22;10084;50.518;8.588;2022-08-01T15:51:57;29.50;73.80
19847;DHT22;10084;50.518;8.588;2022-08-01T15:54:23;29.40;74.20
19847;DHT22;10084;50.518;8.588;2022-08-01T15:56:49;29.30;74.70
19847;DHT22;10084;50.518;8.588;2022-08-01T15:59:15;29.10;75.10
19847;DHT22;10084;50.518;8.588;2022-08-01T16:18:52;28.70;75.90
19847;DHT22;10084;50.518;8.588;2022-08-01T16:23:51;28.60;76.50
19847;DHT22;10084;50.518;8.588;2022-08-01T16:31:18;28.40;64.60
19847;DHT22;10084;50.518;8.588;2022-08-01T16:33:45;28.50;64.60
19847;DHT22;10084;50.518;8.588;2022-08-01T16:36:10;28.40;65.50
19847;DHT22;10084;50.518;8.588;2022-08-01T16:38:37;28.40;65.10
19847;DHT22;10084;50.518;8.588;2022-08-01T16:41:03;28.40;65.40
19847;DHT22;10084;50.518;8.588;2022-08-01T16:43:28;28.40;66.00
19847;DHT22;10084;50.518;8.588;2022-08-01T16:45:54;28.30;66.20
19847;DHT22;10084;50.518;8.588;2022-08-01T16:48:20;28.30;66.40
19847;DHT22;10084;50.518;8.588;2022-08-01T16:50:47;28.30;66.80
19847;DHT22;10084;50.518;8.588;2022-08-01T16:53:21;28.20;67.30
19847;DHT22;10084;50.518;8.588;2022-08-01T17:00:42;28.10;72.60
19847;DHT22;10084;50.518;8.588;2022-08-01T17:03:09;28.00;73.50
19847;DHT22;10084;50.518;8.588;2022-08-01T17:05:36;28.00;72.70
19847;DHT22;10084;50.518;8.588;2022-08-01T17:08:02;28.00;73.80
19847;DHT22;10084;50.518;8.588;2022-08-01T17:10:28;28.00;73.50
19847;DHT22;10084;50.518;8.588;2022-08-01T17:15:20;28.20;71.10
19847;DHT22;10084;50.518;8.588;2022-08-01T17:17:46;27.80;70.20
19847;DHT22;10084;50.518;8.588;2022-08-01T17:20:11;27.70;69.70
19847;DHT22;10084;50.518;8.588;2022-08-01T17:22:37;27.70;69.90
19847;DHT22;10084;50.518;8.588;2022-08-01T17:25:03;27.60;70.10
19847;DHT22;10084;50.518;8.588;2022-08-01T17:27:29;27.60;71.00
19847;DHT22;10084;50.518;8.588;2022-08-01T17:29:54;27.50;71.80
19847;DHT22;10084;50.518;8.588;2022-08-01T17:32:20;27.40;73.30
19847;DHT22;10084;50.518;8.588;2022-08-01T17:34:46;27.40;73.10
19847;DHT22;10084;50.518;8.588;2022-08-01T17:37:12;27.40;71.40
19847;DHT22;10084;50.518;8.588;2022-08-01T17:39:37;27.40;69.70
19847;DHT22;10084;50.518;8.588;2022-08-01T17:42:03;27.40;70.10
19847;DHT22;10084;50.518;8.588;2022-08-01T17:44:29;27.20;70.90
19847;DHT22;10084;50.518;8.588;2022-08-01T17:46:54;27.30;70.10
19847;DHT22;10084;50.518;8.588;2022-08-01T17:49:20;27.30;69.70
19847;DHT22;10084;50.518;8.588;2022-08-01T17:51:47;27.30;69.60
19847;DHT22;10084;50.518;8.588;2022-08-01T17:54:13;27.30;70.10
19847;DHT22;10084;50.518;8.588;2022-08-01T17:56:38;27.30;70.30
19847;DHT22;10084;50.518;8.588;2022-08-01T17:59:04;27.30;71.30
19847;DHT22;10084;50.518;8.588;2022-08-01T18:01:32;27.20;68.50
19847;DHT22;10084;50.518;8.588;2022-08-01T18:04:00;27.20;68.40
19847;DHT22;10084;50.518;8.588;2022-08-01T18:06:25;27.10;68.80
19847;DHT22;10084;50.518;8.588;2022-08-01T18:08:51;27.10;69.20
19847;DHT22;10084;50.518;8.588;2022-08-01T18:11:17;27.10;69.30
19847;DHT22;10084;50.518;8.588;2022-08-01T18:13:43;27.10;69.50
19847;DHT22;10084;50.518;8.588;2022-08-01T18:16:10;27.00;69.60
19847;DHT22;10084;50.518;8.588;2022-08-01T18:18:38;27.00;69.50
19847;DHT22;10084;50.518;8.588;2022-08-01T18:21:05;26.90;69.40
19847;DHT22;10084;50.518;8.588;2022-08-01T18:23:31;26.80;69.60
19847;DHT22;10084;50.518;8.588;2022-08-01T18:25:58;26.80;69.90
19847;DHT22;10084;50.518;8.588;2022-08-01T18:28:27;26.70;70.30
19847;DHT22;10084;50.518;8.588;2022-08-01T18:30:54;26.70;70.30
19847;DHT22;10084;50.518;8.588;2022-08-01T18:33:20;26.60;70.70
19847;DHT22;10084;50.518;8.588;2022-08-01T18:35:46;26.60;70.80
19847;DHT22;10084;50.518;8.588;2022-08-01T18:38:11;26.50;70.70
19847;DHT22;10084;50.518;8.588;2022-08-01T18:40:37;26.50;71.00
19847;DHT22;10084;50.518;8.588;2022-08-01T18:43:03;26.40;71.20
19847;DHT22;10084;50.518;8.588;2022-08-01T18:45:29;26.40;71.20
19847;DHT22;10084;50.518;8.588;2022-08-01T18:47:55;26.30;71.20
19847;DHT22;10084;50.518;8.588;2022-08-01T18:50:21;26.20;71.00
19847;DHT22;10084;50.518;8.588;2022-08-01T18:52:49;26.20;71.20
19847;DHT22;10084;50.518;8.588;2022-08-01T18:55:16;26.10;71.40
19847;DHT22;10084;50.518;8.588;2022-08-01T18:57:41;26.00;72.20
19847;DHT22;10084;50.518;8.588;2022-08-01T19:00:08;26.00;69.90
19847;DHT22;10084;50.518;8.588;2022-08-01T19:02:34;26.00;70.10
19847;DHT22;10084;50.518;8.588;2022-08-01T19:05:00;26.00;70.40
19847;DHT22;10084;50.518;8.588;2022-08-01T19:07:26;25.90;70.60
19847;DHT22;10084;50.518;8.588;2022-08-01T19:09:52;25.90;71.20
19847;DHT22;10084;50.518;8.588;2022-08-01T19:12:17;25.80;72.30
19847;DHT22;10084;50.518;8.588;2022-08-01T19:14:43;25.90;74.80
19847;DHT22;10084;50.518;8.588;2022-08-01T19:19:35;25.80;72.40
19847;DHT22;10084;50.518;8.588;2022-08-01T19:22:01;25.70;71.50
19847;DHT22;10084;50.518;8.588;2022-08-01T19:24:29;25.60;72.20
19847;DHT22;10084;50.518;8.588;2022-08-01T19:26:57;25.60;70.20
19847;DHT22;10084;50.518;8.588;2022-08-01T19:29:28;25.60;71.30
19847;DHT22;10084;50.518;8.588;2022-08-01T19:31:56;25.50;71.30
19847;DHT22;10084;50.518;8.588;2022-08-01T19:34:23;25.50;71.20
19847;DHT22;10084;50.518;8.588;2022-08-01T19:36:51;25.40;71.30
19847;DHT22;10084;50.518;8.588;2022-08-01T19:39:20;25.40;71.40
19847;DHT22;10084;50.518;8.588;2022-08-01T19:41:49;25.30;71.40
19847;DHT22;10084;50.518;8.588;2022-08-01T19:44:18;25.20;71.70
19847;DHT22;10084;50.518;8.588;2022-08-01T19:46:44;25.20;72.00
19847;DHT22;10084;50.518;8.588;2022-08-01T19:49:11;25.10;72.10
19847;DHT22;10084;50.518;8.588;2022-08-01T19:52:02;25.00;72.50
19847;DHT22;10084;50.518;8.588;2022-08-01T19:54:33;24.90;73.10
19847;DHT22;10084;50.518;8.588;2022-08-01T19:57:01;24.80;73.50
19847;DHT22;10084;50.518;8.588;2022-08-01T19:59:31;24.80;73.80
19847;DHT22;10084;50.518;8.588;2022-08-01T20:01:57;24.70;74.10
19847;DHT22;10084;50.518;8.588;2022-08-01T20:04:24;24.60;74.90
19847;DHT22;10084;50.518;8.588;2022-08-01T20:06:51;24.60;76.10
19847;DHT22;10084;50.518;8.588;2022-08-01T20:09:17;24.50;76.90
19847;DHT22;10084;50.518;8.588;2022-08-01T20:11:46;24.50;77.90
19847;DHT22;10084;50.518;8.588;2022-08-01T20:14:21;24.50;75.50
19847;DHT22;10084;50.518;8.588;2022-08-01T20:16:48;24.40;73.30
19847;DHT22;10084;50.518;8.588;2022-08-01T20:19:15;24.40;72.90
19847;DHT22;10084;50.518;8.588;2022-08-01T20:21:44;24.30;72.70
19847;DHT22;10084;50.518;8.588;2022-08-01T20:24:14;24.30;73.00
19847;DHT22;10084;50.518;8.588;2022-08-01T20:26:42;24.20;73.50
19847;DHT22;10084;50.518;8.588;2022-08-01T20:29:10;24.20;73.20
19847;DHT22;10084;50.518;8.588;2022-08-01T20:31:38;24.10;73.00
19847;DHT22;10084;50.518;8.588;2022-08-01T20:34:05;24.10;73.00